createdAt,value
2022-09-06T00:00:50.343Z,16.41
2022-09-06T00:03:14.539Z,16.60
2022-09-06T00:05:39.113Z,16.38
2022-09-06T00:08:04.531Z,16.25
2022-09-06T00:10:31.807Z,16.05
2022-09-06T00:12:57.103Z,16.10
2022-09-06T00:15:22.416Z,15.90
2022-09-06T00:17:46.695Z,15.74
2022-09-06T00:20:10.895Z,15.39
2022-09-06T00:22:35.012Z,15.65
2022-09-06T00:24:59.104Z,15.59
2022-09-06T00:27:24.529Z,15.69
2022-09-06T00:29:48.424Z,15.56
2022-09-06T00:32:12.598Z,15.62
2022-09-06T00:34:36.491Z,15.69
2022-09-06T00:37:00.549Z,15.83
2022-09-06T00:39:24.732Z,15.69
2022-09-06T00:41:48.909Z,15.64
2022-09-06T00:44:14.305Z,15.47
2022-09-06T00:46:41.168Z,15.38
2022-09-06T00:49:10.354Z,15.27
2022-09-06T00:51:36.605Z,15.36
2022-09-06T00:54:04.539Z,15.30
2022-09-06T00:56:29.118Z,15.21
2022-09-06T00:58:53.552Z,15.14
2022-09-06T01:01:19.121Z,15.19
2022-09-06T01:03:43.600Z,15.16
2022-09-06T01:06:20.279Z,15.20
2022-09-06T01:08:59.759Z,15.19
2022-09-06T01:11:39.252Z,15.27
2022-09-06T01:14:15.813Z,14.98
2022-09-06T01:16:46.115Z,15.30
2022-09-06T01:19:45.410Z,15.13
2022-09-06T01:22:20.929Z,15.14
2022-09-06T01:25:06.008Z,15.11
2022-09-06T01:27:51.839Z,15.28
2022-09-06T01:30:18.809Z,14.96
2022-09-06T01:32:51.411Z,15.25
2022-09-06T01:35:22.511Z,14.83
2022-09-06T01:37:48.138Z,15.13
2022-09-06T01:40:12.303Z,15.29
2022-09-06T01:42:37.945Z,15.05
2022-09-06T01:45:06.682Z,15.11
2022-09-06T01:47:40.595Z,15.01
2022-09-06T01:50:22.196Z,15.12
2022-09-06T01:52:57.820Z,15.29
2022-09-06T01:55:29.390Z,15.19
2022-09-06T01:58:11.282Z,15.14
2022-09-06T02:00:45.042Z,15.08
2022-09-06T02:03:16.328Z,15.23
2022-09-06T02:05:46.011Z,15.12
2022-09-06T02:08:15.813Z,15.11
2022-09-06T02:10:44.841Z,15.00
2022-09-06T02:13:11.662Z,14.79
2022-09-06T02:15:41.125Z,15.03
2022-09-06T02:18:10.511Z,14.82
2022-09-06T02:20:38.962Z,14.81
2022-09-06T02:23:06.468Z,15.02
2022-09-06T02:25:36.665Z,15.04
2022-09-06T02:28:00.923Z,15.00
2022-09-06T02:30:25.098Z,15.11
2022-09-06T02:32:57.539Z,15.04
2022-09-06T02:35:21.787Z,15.14
2022-09-06T02:37:46.455Z,14.64
2022-09-06T02:40:12.385Z,14.85
2022-09-06T02:42:36.748Z,14.89
2022-09-06T02:45:00.668Z,15.00
2022-09-06T02:47:24.648Z,14.97
2022-09-06T02:49:50.673Z,15.05
2022-09-06T02:52:14.852Z,14.57
2022-09-06T02:54:38.796Z,14.69
2022-09-06T02:57:02.956Z,14.65
2022-09-06T02:59:26.948Z,14.62
2022-09-06T03:01:51.028Z,14.62
2022-09-06T03:04:15.136Z,14.65
2022-09-06T03:06:40.525Z,14.55
2022-09-06T03:09:04.568Z,14.41
2022-09-06T03:11:29.505Z,14.21
2022-09-06T03:13:53.549Z,14.51
2022-09-06T03:16:17.972Z,14.72
2022-09-06T03:18:42.354Z,14.74
2022-09-06T03:21:06.689Z,14.70
2022-09-06T03:23:32.168Z,14.79
2022-09-06T03:25:56.793Z,14.23
2022-09-06T03:28:21.938Z,14.94
2022-09-06T03:30:47.035Z,14.78
2022-09-06T03:33:11.219Z,14.85
2022-09-06T03:35:35.128Z,14.85
2022-09-06T03:37:59.185Z,14.84
2022-09-06T03:40:24.764Z,14.78
2022-09-06T03:42:48.742Z,14.80
2022-09-06T03:45:12.810Z,14.93
2022-09-06T03:47:37.006Z,14.97
2022-09-06T03:50:01.312Z,14.98
2022-09-06T03:52:27.136Z,15.11
2022-09-06T03:54:52.494Z,15.19
2022-09-06T03:57:18.421Z,15.08
2022-09-06T03:59:42.633Z,15.20
2022-09-06T04:02:07.901Z,15.23
2022-09-06T04:04:31.907Z,15.15
2022-09-06T04:06:55.895Z,15.17
2022-09-06T04:09:20.074Z,15.28
2022-09-06T04:11:45.215Z,15.40
2022-09-06T04:14:11.009Z,15.30
2022-09-06T04:16:35.484Z,15.44
2022-09-06T04:19:01.567Z,15.54
2022-09-06T04:21:25.697Z,15.32
2022-09-06T04:23:50.122Z,15.80
2022-09-06T04:26:14.115Z,15.73
2022-09-06T04:28:38.109Z,15.81
2022-09-06T04:31:05.365Z,16.02
2022-09-06T04:33:30.367Z,16.21
2022-09-06T04:35:56.624Z,16.11
2022-09-06T04:38:21.224Z,16.47
2022-09-06T04:40:45.245Z,16.61
2022-09-06T04:43:09.288Z,16.83
2022-09-06T04:45:33.370Z,16.96
2022-09-06T04:47:58.820Z,17.18
2022-09-06T04:50:22.815Z,17.24
2022-09-06T04:52:46.993Z,17.25
2022-09-06T04:55:11.283Z,17.36
2022-09-06T04:57:35.318Z,17.45
2022-09-06T04:59:59.504Z,17.47
2022-09-06T05:02:23.557Z,17.62
2022-09-06T05:04:49.038Z,17.61
2022-09-06T05:07:13.204Z,17.84
2022-09-06T05:09:37.975Z,17.84
2022-09-06T05:12:02.500Z,17.93
2022-09-06T05:14:26.695Z,18.15
2022-09-06T05:16:51.546Z,18.31
2022-09-06T05:19:16.264Z,18.59
2022-09-06T05:21:42.294Z,18.63
2022-09-06T05:24:06.943Z,18.64
2022-09-06T05:26:31.232Z,18.64
2022-09-06T05:28:57.479Z,18.60
2022-09-06T05:31:27.992Z,18.94
2022-09-06T05:33:53.307Z,18.83
2022-09-06T05:36:17.517Z,19.07
2022-09-06T05:38:42.927Z,19.22
2022-09-06T05:41:06.908Z,19.21
2022-09-06T05:43:31.097Z,19.28
2022-09-06T05:45:55.147Z,19.35
2022-09-06T05:48:19.300Z,19.48
2022-09-06T05:50:43.404Z,19.64
2022-09-06T05:53:07.858Z,19.74
2022-09-06T05:55:33.301Z,19.90
2022-09-06T05:57:57.339Z,19.73
2022-09-06T06:00:21.511Z,19.98
2022-09-06T06:02:48.076Z,19.65
2022-09-06T06:05:12.416Z,20.01
2022-09-06T06:07:36.440Z,19.99
2022-09-06T06:10:00.426Z,19.96
2022-09-06T06:12:25.850Z,20.08
2022-09-06T06:14:49.804Z,20.14
2022-09-06T06:17:13.778Z,20.28
2022-09-06T06:19:37.932Z,20.19
2022-09-06T06:22:01.870Z,20.26
2022-09-06T06:24:26.079Z,20.39
2022-09-06T06:26:50.161Z,20.38
2022-09-06T06:29:15.529Z,20.37
2022-09-06T06:31:40.300Z,20.13
2022-09-06T06:34:05.849Z,20.57
2022-09-06T06:36:31.781Z,20.51
2022-09-06T06:38:56.623Z,20.28
2022-09-06T06:41:23.949Z,20.18
2022-09-06T06:43:48.484Z,20.78
2022-09-06T06:46:16.293Z,21.08
2022-09-06T06:48:41.450Z,20.88
2022-09-06T06:51:05.649Z,20.97
2022-09-06T06:53:30.218Z,21.02
2022-09-06T06:55:54.593Z,20.82
2022-09-06T06:58:19.856Z,20.63
2022-09-06T07:00:44.126Z,20.73
2022-09-06T07:03:10.243Z,20.84
2022-09-06T07:08:18.501Z,20.91
2022-09-06T07:10:42.530Z,20.77
2022-09-06T07:13:06.494Z,21.00
2022-09-06T07:15:30.766Z,20.96
2022-09-06T07:17:56.309Z,21.14
2022-09-06T07:20:21.631Z,21.25
2022-09-06T07:22:45.827Z,21.14
2022-09-06T07:25:14.513Z,21.37
2022-09-06T07:27:49.095Z,21.32
2022-09-06T07:30:15.013Z,21.53
2022-09-06T07:32:39.118Z,21.59
2022-09-06T07:35:03.162Z,20.99
2022-09-06T07:37:29.213Z,21.11
2022-09-06T07:39:53.315Z,21.37
2022-09-06T07:42:17.451Z,21.69
2022-09-06T07:44:41.638Z,21.31
2022-09-06T07:55:20.899Z,21.94
2022-09-06T07:57:44.900Z,21.73
2022-09-06T08:00:11.076Z,22.22
2022-09-06T08:02:38.718Z,22.06
2022-09-06T08:05:02.816Z,22.25
2022-09-06T08:07:42.803Z,22.32
2022-09-06T08:10:09.757Z,22.24
2022-09-06T08:12:36.443Z,22.25
2022-09-06T08:15:00.609Z,22.19
2022-09-06T08:17:24.841Z,22.12
2022-09-06T08:19:49.343Z,22.05
2022-09-06T08:22:13.458Z,22.12
2022-09-06T08:24:38.658Z,22.43
2022-09-06T08:27:07.716Z,22.39
2022-09-06T08:29:31.820Z,22.50
2022-09-06T08:31:57.897Z,22.74
2022-09-06T08:34:22.013Z,22.71
2022-09-06T08:36:46.453Z,22.47
2022-09-06T08:39:12.008Z,22.48
2022-09-06T08:41:47.411Z,22.56
2022-09-06T08:47:04.617Z,22.57
2022-09-06T08:49:31.945Z,22.33
2022-09-06T08:52:20.118Z,22.40
2022-09-06T08:54:54.390Z,22.62
2022-09-06T08:57:39.956Z,22.63
2022-09-06T09:00:11.056Z,22.39
2022-09-06T09:02:44.148Z,21.96
2022-09-06T09:05:21.024Z,22.49
2022-09-06T09:07:48.275Z,22.67
2022-09-06T09:10:18.062Z,22.46
2022-09-06T09:12:47.115Z,22.58
2022-09-06T09:15:15.070Z,22.39
2022-09-06T09:17:39.231Z,22.34
2022-09-06T09:20:03.706Z,22.31
2022-09-06T09:22:27.965Z,22.31
2022-09-06T09:24:54.734Z,22.71
2022-09-06T09:27:21.082Z,22.69
2022-09-06T09:32:47.648Z,22.73
2022-09-06T09:35:22.356Z,22.47
2022-09-06T09:37:47.473Z,22.30
2022-09-06T09:40:17.222Z,22.48
2022-09-06T09:42:41.645Z,22.96
2022-09-06T09:45:23.390Z,22.86
2022-09-06T09:47:48.818Z,22.87
2022-09-06T09:50:26.101Z,23.31
2022-09-06T09:52:50.286Z,22.99
2022-09-06T09:55:14.392Z,23.04
2022-09-06T09:57:47.062Z,22.61
2022-09-06T10:00:14.138Z,22.58
2022-09-06T10:02:40.432Z,22.92
2022-09-06T10:05:10.368Z,22.40
2022-09-06T10:07:35.570Z,23.07
2022-09-06T10:10:01.083Z,23.45
2022-09-06T10:12:30.929Z,23.75
2022-09-06T10:14:54.884Z,23.98
2022-09-06T10:17:30.037Z,24.41
2022-09-06T10:19:54.616Z,23.98
2022-09-06T10:22:50.773Z,23.82
2022-09-06T10:25:43.977Z,23.74
2022-09-06T10:28:23.473Z,23.64
2022-09-06T10:31:10.113Z,23.45
2022-09-06T10:33:40.663Z,23.21
2022-09-06T10:36:05.695Z,23.33
2022-09-06T10:38:42.969Z,23.88
2022-09-06T10:41:25.197Z,23.34
2022-09-06T10:43:59.204Z,23.86
2022-09-06T10:46:28.376Z,24.17
2022-09-06T10:48:54.563Z,24.26
2022-09-06T10:51:28.639Z,24.05
2022-09-06T10:53:58.422Z,23.61
2022-09-06T10:56:28.265Z,24.00
2022-09-06T11:01:47.726Z,24.57
2022-09-06T11:04:23.883Z,24.43
2022-09-06T11:06:53.408Z,24.20
2022-09-06T11:09:26.458Z,24.03
2022-09-06T11:11:59.482Z,23.95
2022-09-06T11:14:26.853Z,24.02
2022-09-06T11:16:55.773Z,23.96
2022-09-06T11:19:26.653Z,24.63
2022-09-06T11:22:34.561Z,24.27
2022-09-06T11:25:23.799Z,23.74
2022-09-06T11:27:57.749Z,23.62
2022-09-06T11:30:22.951Z,23.85
2022-09-06T11:32:50.338Z,23.32
2022-09-06T11:35:23.574Z,23.63
2022-09-06T11:37:50.784Z,23.65
2022-09-06T11:40:27.342Z,24.10
2022-09-06T11:43:15.599Z,23.95
2022-09-06T11:45:46.848Z,23.76
2022-09-06T11:48:50.553Z,23.52
2022-09-06T11:51:33.758Z,23.02
2022-09-06T11:54:22.938Z,23.06
2022-09-06T11:56:56.287Z,23.49
2022-09-06T11:59:35.368Z,23.29
2022-09-06T12:02:04.493Z,23.40
2022-09-06T12:05:27.311Z,24.15
2022-09-06T12:08:34.229Z,23.88
2022-09-06T12:11:06.348Z,23.78
2022-09-06T12:14:03.338Z,23.33
2022-09-06T12:17:07.379Z,23.06
2022-09-06T12:19:44.477Z,23.66
2022-09-06T12:22:42.171Z,24.22
2022-09-06T12:25:07.955Z,24.42
2022-09-06T12:27:35.098Z,24.35
2022-09-06T12:30:01.916Z,24.05
2022-09-06T12:32:34.884Z,24.32
2022-09-06T12:37:52.511Z,23.48
2022-09-06T12:40:19.447Z,24.13
2022-09-06T12:42:46.307Z,23.77
2022-09-06T12:45:12.512Z,24.31
2022-09-06T12:47:40.088Z,23.75
2022-09-06T12:50:14.913Z,24.04
2022-09-06T12:52:46.751Z,24.44
2022-09-06T12:55:17.460Z,24.27
2022-09-06T12:57:51.407Z,23.58
2022-09-06T13:00:16.164Z,23.59
2022-09-06T13:02:46.094Z,24.13
2022-09-06T13:05:13.069Z,24.01
2022-09-06T13:07:42.632Z,24.39
2022-09-06T13:10:07.160Z,24.40
2022-09-06T13:12:34.681Z,24.49
2022-09-06T13:15:05.779Z,23.97
2022-09-06T13:17:31.707Z,24.01
2022-09-06T13:20:00.010Z,24.41
2022-09-06T13:22:43.119Z,24.75
2022-09-06T13:25:20.673Z,24.62
2022-09-06T13:27:50.827Z,24.31
2022-09-06T13:30:37.747Z,24.05
2022-09-06T13:33:03.040Z,23.64
2022-09-06T13:35:30.351Z,24.26
2022-09-06T13:37:54.280Z,23.51
2022-09-06T13:41:06.938Z,23.62
2022-09-06T13:43:27.721Z,23.61
2022-09-06T13:46:05.401Z,23.94
2022-09-06T13:48:29.584Z,23.57
2022-09-06T13:50:53.508Z,24.15
2022-09-06T13:53:20.722Z,24.21
2022-09-06T13:55:44.784Z,24.05
2022-09-06T13:58:09.274Z,24.05
2022-09-06T14:00:33.150Z,24.39
2022-09-06T14:02:59.108Z,24.21
2022-09-06T14:05:23.158Z,23.99
2022-09-06T14:07:47.312Z,24.14
2022-09-06T14:10:12.627Z,23.80
2022-09-06T14:12:38.301Z,23.36
2022-09-06T14:15:02.522Z,23.02
2022-09-06T14:17:27.922Z,23.49
2022-09-06T14:19:53.323Z,23.34
2022-09-06T14:22:17.475Z,23.58
2022-09-06T14:24:41.695Z,23.52
2022-09-06T14:27:08.594Z,23.76
2022-09-06T14:29:32.903Z,23.29
2022-09-06T14:31:57.022Z,23.32
2022-09-06T14:34:21.625Z,23.31
2022-09-06T14:36:46.991Z,23.42
2022-09-06T14:39:11.036Z,23.87
2022-09-06T14:41:35.076Z,23.95
2022-09-06T14:44:00.368Z,23.90
2022-09-06T14:46:26.365Z,23.91
2022-09-06T14:48:56.929Z,24.20
2022-09-06T14:51:22.619Z,23.77
2022-09-06T14:53:48.398Z,24.32
2022-09-06T14:56:13.530Z,23.83
2022-09-06T14:58:39.173Z,23.82
2022-09-06T15:01:14.697Z,23.27
2022-09-06T15:03:39.125Z,23.60
2022-09-06T15:06:05.191Z,23.73
2022-09-06T15:08:29.370Z,23.78
2022-09-06T15:10:56.591Z,23.48
2022-09-06T15:13:20.616Z,23.64
2022-09-06T15:15:45.592Z,24.10
2022-09-06T15:18:09.688Z,24.06
2022-09-06T15:20:33.756Z,24.20
2022-09-06T15:23:15.147Z,23.35
2022-09-06T15:25:47.287Z,23.24
2022-09-06T15:28:12.901Z,23.36
2022-09-06T15:30:39.958Z,23.61
2022-09-06T15:33:03.956Z,23.21
2022-09-06T15:35:28.170Z,22.82
2022-09-06T15:37:52.302Z,23.48
2022-09-06T15:40:17.782Z,22.81
2022-09-06T15:42:41.978Z,22.96
2022-09-06T15:45:08.998Z,23.20
2022-09-06T15:47:35.398Z,23.34
2022-09-06T15:49:59.619Z,22.86
2022-09-06T15:52:23.640Z,23.25
2022-09-06T15:55:05.378Z,22.84
2022-09-06T15:57:29.736Z,21.65
2022-09-06T15:59:53.771Z,22.35
2022-09-06T16:02:19.361Z,22.30
2022-09-06T16:04:43.579Z,22.61
2022-09-06T16:07:09.828Z,22.69
2022-09-06T16:09:34.013Z,22.79
2022-09-06T16:11:58.277Z,22.87
2022-09-06T16:14:22.415Z,22.91
2022-09-06T16:16:47.021Z,22.33
2022-09-06T16:19:14.208Z,22.65
2022-09-06T16:21:39.897Z,22.13
2022-09-06T16:24:06.418Z,21.89
2022-09-06T16:26:32.700Z,21.89
2022-09-06T16:28:56.867Z,21.62
2022-09-06T16:31:22.578Z,21.54
2022-09-06T16:33:48.935Z,21.30
2022-09-06T16:36:15.132Z,21.43
2022-09-06T16:38:41.079Z,21.32
2022-09-06T16:41:11.621Z,21.65
2022-09-06T16:43:36.029Z,21.65
2022-09-06T16:46:02.489Z,21.63
2022-09-06T16:48:27.095Z,21.48
2022-09-06T16:50:51.268Z,21.20
2022-09-06T16:53:20.315Z,21.48
2022-09-06T16:55:46.403Z,21.31
2022-09-06T16:58:10.471Z,21.12
2022-09-06T17:00:34.689Z,21.16
2022-09-06T17:02:59.467Z,21.12
2022-09-06T17:05:23.891Z,20.89
2022-09-06T17:07:47.996Z,20.40
2022-09-06T17:10:13.575Z,20.49
2022-09-06T17:12:37.777Z,20.28
2022-09-06T17:15:01.819Z,20.33
2022-09-06T17:17:27.858Z,20.17
2022-09-06T17:19:51.957Z,20.09
2022-09-06T17:22:16.065Z,19.72
2022-09-06T17:24:42.738Z,19.47
2022-09-06T17:27:09.094Z,19.17
2022-09-06T17:29:33.672Z,19.06
2022-09-06T17:31:57.939Z,19.06
2022-09-06T17:34:22.427Z,18.94
2022-09-06T17:36:46.532Z,19.04
2022-09-06T17:39:13.941Z,19.00
2022-09-06T17:41:40.373Z,18.93
2022-09-06T17:44:06.273Z,18.80
2022-09-06T17:46:30.643Z,18.63
2022-09-06T17:48:54.712Z,18.77
2022-09-06T17:51:19.112Z,18.75
2022-09-06T17:53:46.354Z,18.82
2022-09-06T17:56:12.089Z,18.87
2022-09-06T17:58:36.770Z,18.81
2022-09-06T18:01:04.733Z,18.58
2022-09-06T18:03:28.834Z,18.55
2022-09-06T18:05:52.918Z,18.32
2022-09-06T18:08:17.162Z,18.36
2022-09-06T18:10:42.188Z,18.21
2022-09-06T18:13:07.092Z,17.36
2022-09-06T18:15:31.540Z,18.02
2022-09-06T18:17:57.162Z,17.82
2022-09-06T18:20:21.205Z,18.09
2022-09-06T18:22:45.635Z,17.87
2022-09-06T18:25:10.331Z,18.02
2022-09-06T18:27:35.027Z,17.82
2022-09-06T18:29:59.667Z,17.78
2022-09-06T18:32:24.165Z,17.78
2022-09-06T18:34:49.853Z,17.75
2022-09-06T18:37:14.724Z,17.82
2022-09-06T18:39:39.718Z,17.91
2022-09-06T18:42:07.360Z,17.76
2022-09-06T18:44:33.216Z,17.93
2022-09-06T18:46:58.410Z,17.73
2022-09-06T18:49:22.958Z,17.70
2022-09-06T18:51:48.746Z,17.55
2022-09-06T18:54:13.122Z,16.71
2022-09-06T18:56:40.457Z,17.60
2022-09-06T18:59:05.995Z,17.71
2022-09-06T19:01:31.423Z,17.71
2022-09-06T19:03:57.822Z,17.88
2022-09-06T19:06:23.194Z,17.93
2022-09-06T19:08:49.580Z,18.05
2022-09-06T19:11:17.277Z,17.87
2022-09-06T19:13:43.022Z,17.82
2022-09-06T19:16:08.325Z,17.85
2022-09-06T19:18:33.338Z,17.75
2022-09-06T19:20:59.175Z,17.80
2022-09-06T19:23:24.124Z,17.65
2022-09-06T19:25:58.026Z,17.53
2022-09-06T19:28:22.311Z,17.45
2022-09-06T19:30:46.596Z,17.53
2022-09-06T19:33:10.957Z,17.54
2022-09-06T19:35:50.856Z,17.47
2022-09-06T19:38:22.069Z,17.41
2022-09-06T19:40:46.280Z,17.28
2022-09-06T19:43:11.940Z,17.05
2022-09-06T19:45:38.188Z,16.87
2022-09-06T19:48:02.421Z,16.95
2022-09-06T19:50:26.601Z,17.03
2022-09-06T19:52:51.470Z,17.08
2022-09-06T19:55:16.118Z,16.97
2022-09-06T19:57:40.239Z,17.05
2022-09-06T20:00:07.113Z,17.07
2022-09-06T20:02:36.323Z,16.88
2022-09-06T20:05:00.382Z,16.74
2022-09-06T20:07:25.188Z,16.66
2022-09-06T20:09:52.423Z,16.88
2022-09-06T20:12:16.967Z,16.48
2022-09-06T20:14:41.404Z,16.42
2022-09-06T20:17:32.158Z,16.55
2022-09-06T20:19:51.813Z,16.67
2022-09-06T20:22:16.298Z,16.85
2022-09-06T20:24:40.869Z,16.55
2022-09-06T20:27:06.021Z,16.79
2022-09-06T20:29:30.487Z,16.37
2022-09-06T20:31:54.531Z,16.59
2022-09-06T20:34:20.324Z,15.93
2022-09-06T20:36:44.442Z,16.54
2022-09-06T20:39:09.741Z,16.73
2022-09-06T20:41:35.005Z,16.67
2022-09-06T20:44:00.847Z,16.79
2022-09-06T20:46:26.583Z,16.73
2022-09-06T20:48:51.843Z,16.78
2022-09-06T20:51:19.413Z,16.72
2022-09-06T20:53:44.104Z,16.73
2022-09-06T20:56:10.963Z,16.84
2022-09-06T20:58:35.241Z,16.67
2022-09-06T21:01:00.204Z,16.72
2022-09-06T21:03:24.711Z,16.50
2022-09-06T21:05:49.321Z,16.76
2022-09-06T21:08:14.854Z,16.73
2022-09-06T21:10:38.839Z,16.37
2022-09-06T21:13:03.198Z,16.37
2022-09-06T21:15:27.268Z,16.49
2022-09-06T21:17:51.414Z,16.35
2022-09-06T21:20:15.651Z,16.41
2022-09-06T21:22:39.755Z,16.35
2022-09-06T21:25:07.772Z,16.27
2022-09-06T21:27:33.027Z,16.35
2022-09-06T21:29:57.107Z,16.31
2022-09-06T21:32:21.118Z,16.17
2022-09-06T21:34:45.283Z,16.29
2022-09-06T21:37:09.383Z,16.31
2022-09-06T21:39:33.440Z,16.02
2022-09-06T21:41:59.184Z,16.26
2022-09-06T21:44:23.246Z,16.32
2022-09-06T21:46:47.429Z,16.29
2022-09-06T21:49:13.597Z,16.34
2022-09-06T21:51:38.126Z,16.28
2022-09-06T21:54:05.080Z,16.21
2022-09-06T21:56:29.489Z,16.12
2022-09-06T21:58:56.559Z,16.16
2022-09-06T22:01:21.027Z,16.22
2022-09-06T22:03:45.708Z,16.39
2022-09-06T22:06:11.082Z,16.38
2022-09-06T22:08:35.218Z,16.11
2022-09-06T22:11:09.001Z,16.14
2022-09-06T22:13:33.138Z,16.41
2022-09-06T22:15:58.798Z,16.47
2022-09-06T22:18:22.997Z,16.38
2022-09-06T22:20:47.122Z,16.12
2022-09-06T22:23:11.354Z,16.10
2022-09-06T22:25:35.790Z,15.97
2022-09-06T22:28:00.655Z,15.95
2022-09-06T22:30:25.934Z,16.21
2022-09-06T22:32:51.968Z,16.26
2022-09-06T22:35:16.590Z,16.20
2022-09-06T22:37:40.993Z,15.99
2022-09-06T22:40:06.242Z,15.88
2022-09-06T22:42:30.879Z,15.85
2022-09-06T22:44:55.259Z,16.38
2022-09-06T22:47:19.522Z,16.29
2022-09-06T22:49:45.136Z,16.29
2022-09-06T22:52:09.302Z,16.29
2022-09-06T22:54:33.517Z,16.13
2022-09-06T22:56:57.738Z,16.21
2022-09-06T22:59:21.774Z,16.26
2022-09-06T23:01:46.122Z,16.41
2022-09-06T23:04:11.180Z,16.30
2022-09-06T23:06:37.661Z,16.32
2022-09-06T23:09:02.135Z,16.41
2022-09-06T23:11:27.903Z,16.42
2022-09-06T23:13:57.016Z,16.37
2022-09-06T23:16:21.524Z,16.42
2022-09-06T23:18:46.359Z,16.33
2022-09-06T23:21:12.943Z,16.23
2022-09-06T23:23:39.494Z,16.16
2022-09-06T23:26:11.492Z,15.99
2022-09-06T23:28:36.308Z,16.14
2022-09-06T23:31:03.929Z,15.91
2022-09-06T23:33:28.307Z,15.97
2022-09-06T23:35:55.733Z,16.17
2022-09-06T23:38:20.558Z,16.13
2022-09-06T23:40:46.099Z,16.12
2022-09-06T23:43:10.467Z,16.06
2022-09-06T23:45:34.970Z,16.12
2022-09-06T23:47:59.372Z,16.21
2022-09-06T23:50:23.725Z,16.03
2022-09-06T23:52:48.569Z,15.63
2022-09-06T23:55:12.832Z,15.34
2022-09-06T23:57:38.793Z,15.53
